sensor_id;sensor_type;location;lat;lon;timestamp;temperature;humidity
78455;SHT31;67751;51.986;5.696;2023-11-19T00:01:57;14.1;84.6
78455;SHT31;67751;51.986;5.696;2023-11-19T00:04:26;14.1;84.5
78455;SHT31;67751;51.986;5.696;2023-11-19T00:06:57;14.1;84.9
78455;SHT31;67751;51.986;5.696;2023-11-19T00:09:31;14.1;84.7
78455;SHT31;67751;51.986;5.696;2023-11-19T00:12:04;14.2;84.8
78455;SHT31;67751;51.986;5.696;2023-11-19T00:14:34;14.2;84.4
78455;SHT31;67751;51.986;5.696;2023-11-19T00:17:04;14.2;84.0
78455;SHT31;67751;51.986;5.696;2023-11-19T00:19:33;14.2;84.2
78455;SHT31;67751;51.986;5.696;2023-11-19T00:22:03;14.2;84.3
78455;SHT31;67751;51.986;5.696;2023-11-19T00:24:32;14.3;83.9
78455;SHT31;67751;51.986;5.696;2023-11-19T00:27:02;14.3;84.2
78455;SHT31;67751;51.986;5.696;2023-11-19T00:29:32;14.3;84.2
78455;SHT31;67751;51.986;5.696;2023-11-19T00:32:02;14.3;84.5
78455;SHT31;67751;51.986;5.696;2023-11-19T00:34:33;14.3;84.1
78455;SHT31;67751;51.986;5.696;2023-11-19T00:37:03;14.3;84.0
78455;SHT31;67751;51.986;5.696;2023-11-19T00:39:34;14.3;83.9
78455;SHT31;67751;51.986;5.696;2023-11-19T00:42:04;14.3;84.0
78455;SHT31;67751;51.986;5.696;2023-11-19T00:44:34;14.3;83.7
78455;SHT31;67751;51.986;5.696;2023-11-19T00:47:04;14.4;83.8
78455;SHT31;67751;51.986;5.696;2023-11-19T00:49:34;14.4;83.9
78455;SHT31;67751;51.986;5.696;2023-11-19T00:52:04;14.4;83.8
78455;SHT31;67751;51.986;5.696;2023-11-19T00:54:33;14.4;83.9
78455;SHT31;67751;51.986;5.696;2023-11-19T00:57:03;14.4;83.8
78455;SHT31;67751;51.986;5.696;2023-11-19T00:59:33;14.4;83.5
78455;SHT31;67751;51.986;5.696;2023-11-19T01:02:02;14.4;83.7
78455;SHT31;67751;51.986;5.696;2023-11-19T01:04:35;14.4;83.6
78455;SHT31;67751;51.986;5.696;2023-11-19T01:07:06;14.4;83.8
78455;SHT31;67751;51.986;5.696;2023-11-19T01:09:41;14.4;83.9
78455;SHT31;67751;51.986;5.696;2023-11-19T01:12:11;14.4;83.9
78455;SHT31;67751;51.986;5.696;2023-11-19T01:14:40;14.4;83.8
78455;SHT31;67751;51.986;5.696;2023-11-19T01:17:10;14.4;83.4
78455;SHT31;67751;51.986;5.696;2023-11-19T01:19:39;14.4;83.6
78455;SHT31;67751;51.986;5.696;2023-11-19T01:22:09;14.4;83.6
78455;SHT31;67751;51.986;5.696;2023-11-19T01:24:38;14.4;83.2
78455;SHT31;67751;51.986;5.696;2023-11-19T01:27:10;14.4;83.5
78455;SHT31;67751;51.986;5.696;2023-11-19T01:29:39;14.4;83.1
78455;SHT31;67751;51.986;5.696;2023-11-19T01:32:10;14.4;83.1
78455;SHT31;67751;51.986;5.696;2023-11-19T01:34:41;14.4;83.1
78455;SHT31;67751;51.986;5.696;2023-11-19T01:37:10;14.4;83.3
78455;SHT31;67751;51.986;5.696;2023-11-19T01:39:43;14.4;83.2
78455;SHT31;67751;51.986;5.696;2023-11-19T01:42:13;14.4;83.3
78455;SHT31;67751;51.986;5.696;2023-11-19T01:44:56;14.4;83.5
78455;SHT31;67751;51.986;5.696;2023-11-19T01:47:28;14.4;83.4
78455;SHT31;67751;51.986;5.696;2023-11-19T01:49:59;14.4;83.5
78455;SHT31;67751;51.986;5.696;2023-11-19T01:52:34;14.4;83.5
78455;SHT31;67751;51.986;5.696;2023-11-19T01:55:06;14.4;83.3
78455;SHT31;67751;51.986;5.696;2023-11-19T01:57:40;14.4;83.2
78455;SHT31;67751;51.986;5.696;2023-11-19T02:00:12;14.4;83.2
78455;SHT31;67751;51.986;5.696;2023-11-19T02:02:44;14.4;83.2
78455;SHT31;67751;51.986;5.696;2023-11-19T02:05:15;14.4;83.1
78455;SHT31;67751;51.986;5.696;2023-11-19T02:07:45;14.4;83.0
78455;SHT31;67751;51.986;5.696;2023-11-19T02:10:17;14.4;82.9
78455;SHT31;67751;51.986;5.696;2023-11-19T02:12:47;14.4;82.8
78455;SHT31;67751;51.986;5.696;2023-11-19T02:15:17;14.4;82.7
78455;SHT31;67751;51.986;5.696;2023-11-19T02:17:47;14.4;82.7
78455;SHT31;67751;51.986;5.696;2023-11-19T02:20:17;14.4;82.6
78455;SHT31;67751;51.986;5.696;2023-11-19T02:22:47;14.4;82.6
78455;SHT31;67751;51.986;5.696;2023-11-19T02:25:25;14.4;82.6
78455;SHT31;67751;51.986;5.696;2023-11-19T02:27:58;14.4;82.7
78455;SHT31;67751;51.986;5.696;2023-11-19T02:30:29;14.4;82.6
78455;SHT31;67751;51.986;5.696;2023-11-19T02:32:59;14.4;82.5
78455;SHT31;67751;51.986;5.696;2023-11-19T02:35:33;14.4;82.4
78455;SHT31;67751;51.986;5.696;2023-11-19T02:38:03;14.4;82.3
78455;SHT31;67751;51.986;5.696;2023-11-19T02:40:34;14.4;82.2
78455;SHT31;67751;51.986;5.696;2023-11-19T02:43:04;14.3;82.2
78455;SHT31;67751;51.986;5.696;2023-11-19T02:45:36;14.3;82.2
78455;SHT31;67751;51.986;5.696;2023-11-19T02:48:05;14.3;82.0
78455;SHT31;67751;51.986;5.696;2023-11-19T02:50:37;14.3;82.1
78455;SHT31;67751;51.986;5.696;2023-11-19T02:53:07;14.3;82.0
78455;SHT31;67751;51.986;5.696;2023-11-19T02:55:38;14.3;81.9
78455;SHT31;67751;51.986;5.696;2023-11-19T02:58:10;14.3;81.8
78455;SHT31;67751;51.986;5.696;2023-11-19T03:00:46;14.2;81.9
78455;SHT31;67751;51.986;5.696;2023-11-19T03:03:21;14.2;81.9
78455;SHT31;67751;51.986;5.696;2023-11-19T03:05:56;14.2;81.6
78455;SHT31;67751;51.986;5.696;2023-11-19T03:08:25;14.2;81.6
78455;SHT31;67751;51.986;5.696;2023-11-19T03:10:55;14.2;81.5
78455;SHT31;67751;51.986;5.696;2023-11-19T03:13:25;14.2;81.5
78455;SHT31;67751;51.986;5.696;2023-11-19T03:15:54;14.1;81.2
78455;SHT31;67751;51.986;5.696;2023-11-19T03:18:25;14.1;81.4
78455;SHT31;67751;51.986;5.696;2023-11-19T03:20:56;14.1;81.6
78455;SHT31;67751;51.986;5.696;2023-11-19T03:23:26;14.1;81.7
78455;SHT31;67751;51.986;5.696;2023-11-19T03:25:58;14.1;81.8
78455;SHT31;67751;51.986;5.696;2023-11-19T03:28:30;14.0;81.7
78455;SHT31;67751;51.986;5.696;2023-11-19T03:31:00;14.0;81.4
78455;SHT31;67751;51.986;5.696;2023-11-19T03:33:30;14.0;81.3
78455;SHT31;67751;51.986;5.696;2023-11-19T03:36:00;14.0;81.4
78455;SHT31;67751;51.986;5.696;2023-11-19T03:38:32;14.0;81.2
78455;SHT31;67751;51.986;5.696;2023-11-19T03:41:01;14.0;81.0
78455;SHT31;67751;51.986;5.696;2023-11-19T03:43:32;14.0;81.1
78455;SHT31;67751;51.986;5.696;2023-11-19T03:46:02;14.0;80.8
78455;SHT31;67751;51.986;5.696;2023-11-19T03:48:32;13.9;80.8
78455;SHT31;67751;51.986;5.696;2023-11-19T03:51:02;13.9;80.6
78455;SHT31;67751;51.986;5.696;2023-11-19T03:53:34;13.9;80.4
78455;SHT31;67751;51.986;5.696;2023-11-19T03:56:04;13.9;80.6
78455;SHT31;67751;51.986;5.696;2023-11-19T03:58:34;13.9;80.5
78455;SHT31;67751;51.986;5.696;2023-11-19T04:01:04;13.9;80.5
78455;SHT31;67751;51.986;5.696;2023-11-19T04:03:33;13.8;80.7
78455;SHT31;67751;51.986;5.696;2023-11-19T04:06:03;13.8;80.7
78455;SHT31;67751;51.986;5.696;2023-11-19T04:08:33;13.8;80.5
78455;SHT31;67751;51.986;5.696;2023-11-19T04:11:03;13.8;80.5
78455;SHT31;67751;51.986;5.696;2023-11-19T04:13:34;13.8;80.6
78455;SHT31;67751;51.986;5.696;2023-11-19T04:16:04;13.7;80.6
78455;SHT31;67751;51.986;5.696;2023-11-19T04:18:34;13.7;80.4
78455;SHT31;67751;51.986;5.696;2023-11-19T04:21:05;13.7;80.3
78455;SHT31;67751;51.986;5.696;2023-11-19T04:23:35;13.7;80.3
78455;SHT31;67751;51.986;5.696;2023-11-19T04:26:05;13.6;80.4
78455;SHT31;67751;51.986;5.696;2023-11-19T04:28:34;13.6;80.4
78455;SHT31;67751;51.986;5.696;2023-11-19T04:31:04;13.6;80.4
78455;SHT31;67751;51.986;5.696;2023-11-19T04:33:34;13.6;80.3
78455;SHT31;67751;51.986;5.696;2023-11-19T04:36:03;13.6;80.3
78455;SHT31;67751;51.986;5.696;2023-11-19T04:38:33;13.5;80.4
78455;SHT31;67751;51.986;5.696;2023-11-19T04:41:03;13.5;80.5
78455;SHT31;67751;51.986;5.696;2023-11-19T04:43:34;13.5;80.3
78455;SHT31;67751;51.986;5.696;2023-11-19T04:46:05;13.4;80.6
78455;SHT31;67751;51.986;5.696;2023-11-19T04:48:35;13.4;80.8
78455;SHT31;67751;51.986;5.696;2023-11-19T04:51:09;13.4;80.8
78455;SHT31;67751;51.986;5.696;2023-11-19T04:53:38;13.4;80.7
78455;SHT31;67751;51.986;5.696;2023-11-19T04:56:12;13.4;80.5
78455;SHT31;67751;51.986;5.696;2023-11-19T04:58:44;13.3;80.5
78455;SHT31;67751;51.986;5.696;2023-11-19T05:01:15;13.3;80.9
78455;SHT31;67751;51.986;5.696;2023-11-19T05:03:46;13.3;80.8
78455;SHT31;67751;51.986;5.696;2023-11-19T05:06:15;13.3;81.0
78455;SHT31;67751;51.986;5.696;2023-11-19T05:08:45;13.2;80.7
78455;SHT31;67751;51.986;5.696;2023-11-19T05:11:14;13.2;81.0
78455;SHT31;67751;51.986;5.696;2023-11-19T05:13:47;13.2;80.8
78455;SHT31;67751;51.986;5.696;2023-11-19T05:16:17;13.2;81.1
78455;SHT31;67751;51.986;5.696;2023-11-19T05:18:48;13.2;81.2
78455;SHT31;67751;51.986;5.696;2023-11-19T05:21:18;13.2;81.2
78455;SHT31;67751;51.986;5.696;2023-11-19T05:23:47;13.2;81.2
78455;SHT31;67751;51.986;5.696;2023-11-19T05:26:23;13.2;81.1
78455;SHT31;67751;51.986;5.696;2023-11-19T05:28:53;13.2;81.3
78455;SHT31;67751;51.986;5.696;2023-11-19T05:31:23;13.2;81.3
78455;SHT31;67751;51.986;5.696;2023-11-19T05:33:52;13.2;81.1
78455;SHT31;67751;51.986;5.696;2023-11-19T05:36:22;13.2;81.0
78455;SHT31;67751;51.986;5.696;2023-11-19T05:38:51;13.2;81.0
78455;SHT31;67751;51.986;5.696;2023-11-19T05:41:21;13.2;81.2
78455;SHT31;67751;51.986;5.696;2023-11-19T05:43:50;13.1;81.4
78455;SHT31;67751;51.986;5.696;2023-11-19T05:46:20;13.1;81.1
78455;SHT31;67751;51.986;5.696;2023-11-19T05:48:50;13.1;81.3
78455;SHT31;67751;51.986;5.696;2023-11-19T05:51:19;13.1;81.0
78455;SHT31;67751;51.986;5.696;2023-11-19T05:53:51;13.1;81.2
78455;SHT31;67751;51.986;5.696;2023-11-19T05:56:22;13.1;81.5
78455;SHT31;67751;51.986;5.696;2023-11-19T05:58:53;13.1;81.1
78455;SHT31;67751;51.986;5.696;2023-11-19T06:01:23;13.1;81.2
78455;SHT31;67751;51.986;5.696;2023-11-19T06:03:54;13.1;81.4
78455;SHT31;67751;51.986;5.696;2023-11-19T06:06:23;13.1;81.6
78455;SHT31;67751;51.986;5.696;2023-11-19T06:08:53;13.1;81.3
78455;SHT31;67751;51.986;5.696;2023-11-19T06:11:24;13.1;81.0
78455;SHT31;67751;51.986;5.696;2023-11-19T06:13:54;13.1;81.1
78455;SHT31;67751;51.986;5.696;2023-11-19T06:16:24;13.1;81.4
78455;SHT31;67751;51.986;5.696;2023-11-19T06:18:54;13.1;81.4
78455;SHT31;67751;51.986;5.696;2023-11-19T06:21:24;13.1;81.0
78455;SHT31;67751;51.986;5.696;2023-11-19T06:23:54;13.1;80.9
78455;SHT31;67751;51.986;5.696;2023-11-19T06:26:25;13.1;81.0
78455;SHT31;67751;51.986;5.696;2023-11-19T06:28:56;13.1;80.5
78455;SHT31;67751;51.986;5.696;2023-11-19T06:31:26;13.1;80.7
78455;SHT31;67751;51.986;5.696;2023-11-19T06:33:55;13.1;80.7
78455;SHT31;67751;51.986;5.696;2023-11-19T06:36:25;13.1;81.0
78455;SHT31;67751;51.986;5.696;2023-11-19T06:38:55;13.1;80.8
78455;SHT31;67751;51.986;5.696;2023-11-19T06:41:25;13.1;81.0
78455;SHT31;67751;51.986;5.696;2023-11-19T06:43:54;13.1;80.7
78455;SHT31;67751;51.986;5.696;2023-11-19T06:46:24;13.1;80.9
78455;SHT31;67751;51.986;5.696;2023-11-19T06:48:53;13.1;80.8
78455;SHT31;67751;51.986;5.696;2023-11-19T06:51:23;13.1;81.0
78455;SHT31;67751;51.986;5.696;2023-11-19T06:53:53;13.1;80.9
78455;SHT31;67751;51.986;5.696;2023-11-19T06:56:23;13.1;80.6
78455;SHT31;67751;51.986;5.696;2023-11-19T06:58:53;13.1;80.1
78455;SHT31;67751;51.986;5.696;2023-11-19T07:01:23;13.1;80.4
78455;SHT31;67751;51.986;5.696;2023-11-19T07:03:52;13.1;80.7
78455;SHT31;67751;51.986;5.696;2023-11-19T07:06:23;13.1;80.6
78455;SHT31;67751;51.986;5.696;2023-11-19T07:08:53;13.1;80.5
78455;SHT31;67751;51.986;5.696;2023-11-19T07:11:24;13.1;80.3
78455;SHT31;67751;51.986;5.696;2023-11-19T07:13:53;13.1;80.5
78455;SHT31;67751;51.986;5.696;2023-11-19T07:16:23;13.1;80.1
78455;SHT31;67751;51.986;5.696;2023-11-19T07:18:52;13.1;80.4
78455;SHT31;67751;51.986;5.696;2023-11-19T07:21:22;13.1;80.5
78455;SHT31;67751;51.986;5.696;2023-11-19T07:23:52;13.1;80.3
78455;SHT31;67751;51.986;5.696;2023-11-19T07:26:21;13.1;80.0
78455;SHT31;67751;51.986;5.696;2023-11-19T07:28:51;13.1;79.7
78455;SHT31;67751;51.986;5.696;2023-11-19T07:31:23;13.1;79.7
78455;SHT31;67751;51.986;5.696;2023-11-19T07:33:55;13.1;79.7
78455;SHT31;67751;51.986;5.696;2023-11-19T07:36:24;13.1;80.2
78455;SHT31;67751;51.986;5.696;2023-11-19T07:38:54;13.1;80.3
78455;SHT31;67751;51.986;5.696;2023-11-19T07:41:25;13.1;80.3
78455;SHT31;67751;51.986;5.696;2023-11-19T07:43:54;13.1;79.5
78455;SHT31;67751;51.986;5.696;2023-11-19T07:46:24;13.1;80.4
78455;SHT31;67751;51.986;5.696;2023-11-19T07:48:54;13.1;80.0
78455;SHT31;67751;51.986;5.696;2023-11-19T07:51:24;13.1;80.2
78455;SHT31;67751;51.986;5.696;2023-11-19T07:53:53;13.0;80.1
78455;SHT31;67751;51.986;5.696;2023-11-19T07:56:23;13.0;80.8
78455;SHT31;67751;51.986;5.696;2023-11-19T07:58:52;13.1;80.5
78455;SHT31;67751;51.986;5.696;2023-11-19T08:01:22;13.1;81.2
78455;SHT31;67751;51.986;5.696;2023-11-19T08:03:52;13.1;80.8
78455;SHT31;67751;51.986;5.696;2023-11-19T08:06:22;13.1;80.9
78455;SHT31;67751;51.986;5.696;2023-11-19T08:08:52;13.1;80.8
78455;SHT31;67751;51.986;5.696;2023-11-19T08:11:21;13.1;80.7
78455;SHT31;67751;51.986;5.696;2023-11-19T08:13:51;13.1;79.8
78455;SHT31;67751;51.986;5.696;2023-11-19T08:16:21;13.2;80.3
78455;SHT31;67751;51.986;5.696;2023-11-19T08:18:50;13.2;80.8
78455;SHT31;67751;51.986;5.696;2023-11-19T08:21:20;13.2;79.8
78455;SHT31;67751;51.986;5.696;2023-11-19T08:23:50;13.2;79.8
78455;SHT31;67751;51.986;5.696;2023-11-19T08:26:20;13.2;79.8
78455;SHT31;67751;51.986;5.696;2023-11-19T08:28:49;13.2;79.8
78455;SHT31;67751;51.986;5.696;2023-11-19T08:31:19;13.3;79.3
78455;SHT31;67751;51.986;5.696;2023-11-19T08:33:49;13.3;78.8
78455;SHT31;67751;51.986;5.696;2023-11-19T08:36:19;13.3;79.5
78455;SHT31;67751;51.986;5.696;2023-11-19T08:38:50;13.3;79.7
78455;SHT31;67751;51.986;5.696;2023-11-19T08:41:22;13.3;79.2
78455;SHT31;67751;51.986;5.696;2023-11-19T08:43:52;13.3;79.9
78455;SHT31;67751;51.986;5.696;2023-11-19T08:46:22;13.3;79.0
78455;SHT31;67751;51.986;5.696;2023-11-19T08:48:52;13.3;79.0
78455;SHT31;67751;51.986;5.696;2023-11-19T08:51:25;13.3;80.2
78455;SHT31;67751;51.986;5.696;2023-11-19T08:53:55;13.3;79.1
78455;SHT31;67751;51.986;5.696;2023-11-19T08:56:25;13.4;78.7
78455;SHT31;67751;51.986;5.696;2023-11-19T08:58:59;13.4;79.0
78455;SHT31;67751;51.986;5.696;2023-11-19T09:01:28;13.4;79.7
78455;SHT31;67751;51.986;5.696;2023-11-19T09:03:58;13.4;78.4
78455;SHT31;67751;51.986;5.696;2023-11-19T09:06:28;13.4;79.0
78455;SHT31;67751;51.986;5.696;2023-11-19T09:08:59;13.4;78.8
78455;SHT31;67751;51.986;5.696;2023-11-19T09:11:30;13.4;78.2
78455;SHT31;67751;51.986;5.696;2023-11-19T09:13:59;13.4;78.4
78455;SHT31;67751;51.986;5.696;2023-11-19T09:16:29;13.4;78.6
78455;SHT31;67751;51.986;5.696;2023-11-19T09:18:59;13.4;78.8
78455;SHT31;67751;51.986;5.696;2023-11-19T09:21:32;13.5;78.9
78455;SHT31;67751;51.986;5.696;2023-11-19T09:24:04;13.5;78.7
78455;SHT31;67751;51.986;5.696;2023-11-19T09:26:35;13.5;78.1
78455;SHT31;67751;51.986;5.696;2023-11-19T09:29:08;13.5;77.7
78455;SHT31;67751;51.986;5.696;2023-11-19T09:31:38;13.5;78.7
78455;SHT31;67751;51.986;5.696;2023-11-19T09:34:08;13.5;78.2
78455;SHT31;67751;51.986;5.696;2023-11-19T09:36:38;13.5;78.5
78455;SHT31;67751;51.986;5.696;2023-11-19T09:39:11;13.5;78.4
78455;SHT31;67751;51.986;5.696;2023-11-19T09:41:42;13.6;77.6
78455;SHT31;67751;51.986;5.696;2023-11-19T09:44:12;13.6;77.5
78455;SHT31;67751;51.986;5.696;2023-11-19T09:46:45;13.6;78.1
78455;SHT31;67751;51.986;5.696;2023-11-19T09:49:20;13.6;78.4
78455;SHT31;67751;51.986;5.696;2023-11-19T09:51:51;13.6;77.9
78455;SHT31;67751;51.986;5.696;2023-11-19T09:54:21;13.6;78.1
78455;SHT31;67751;51.986;5.696;2023-11-19T09:56:53;13.6;78.5
78455;SHT31;67751;51.986;5.696;2023-11-19T09:59:27;13.6;78.5
78455;SHT31;67751;51.986;5.696;2023-11-19T10:01:57;13.6;78.2
78455;SHT31;67751;51.986;5.696;2023-11-19T10:04:30;13.7;78.5
78455;SHT31;67751;51.986;5.696;2023-11-19T10:07:00;13.7;78.7
78455;SHT31;67751;51.986;5.696;2023-11-19T10:09:30;13.7;78.5
78455;SHT31;67751;51.986;5.696;2023-11-19T10:12:00;13.7;77.9
78455;SHT31;67751;51.986;5.696;2023-11-19T10:14:31;13.7;78.1
78455;SHT31;67751;51.986;5.696;2023-11-19T10:17:02;13.8;78.1
78455;SHT31;67751;51.986;5.696;2023-11-19T10:19:33;13.8;77.5
78455;SHT31;67751;51.986;5.696;2023-11-19T10:22:05;13.8;76.9
78455;SHT31;67751;51.986;5.696;2023-11-19T10:24:34;13.8;76.0
78455;SHT31;67751;51.986;5.696;2023-11-19T10:27:07;13.8;77.3
78455;SHT31;67751;51.986;5.696;2023-11-19T10:29:38;13.8;76.9
78455;SHT31;67751;51.986;5.696;2023-11-19T10:32:07;13.9;77.1
78455;SHT31;67751;51.986;5.696;2023-11-19T10:34:37;13.9;77.6
78455;SHT31;67751;51.986;5.696;2023-11-19T10:37:07;13.9;76.9
78455;SHT31;67751;51.986;5.696;2023-11-19T10:39:54;13.9;76.2
78455;SHT31;67751;51.986;5.696;2023-11-19T10:42:24;13.9;75.1
78455;SHT31;67751;51.986;5.696;2023-11-19T10:44:54;13.9;75.2
78455;SHT31;67751;51.986;5.696;2023-11-19T10:47:23;13.9;76.2
78455;SHT31;67751;51.986;5.696;2023-11-19T10:49:56;13.9;76.9
78455;SHT31;67751;51.986;5.696;2023-11-19T10:52:27;13.9;75.9
78455;SHT31;67751;51.986;5.696;2023-11-19T10:55:00;13.9;76.0
78455;SHT31;67751;51.986;5.696;2023-11-19T10:57:36;13.9;76.5
78455;SHT31;67751;51.986;5.696;2023-11-19T11:00:09;13.9;74.7
78455;SHT31;67751;51.986;5.696;2023-11-19T11:02:45;14.0;75.6
78455;SHT31;67751;51.986;5.696;2023-11-19T11:05:19;14.0;74.6
78455;SHT31;67751;51.986;5.696;2023-11-19T11:07:52;14.0;75.5
78455;SHT31;67751;51.986;5.696;2023-11-19T11:10:26;14.0;77.0
78455;SHT31;67751;51.986;5.696;2023-11-19T11:12:59;14.0;75.8
78455;SHT31;67751;51.986;5.696;2023-11-19T11:15:31;14.0;75.2
78455;SHT31;67751;51.986;5.696;2023-11-19T11:18:02;14.1;75.3
78455;SHT31;67751;51.986;5.696;2023-11-19T11:20:33;14.1;75.3
78455;SHT31;67751;51.986;5.696;2023-11-19T11:23:24;14.1;75.4
78455;SHT31;67751;51.986;5.696;2023-11-19T11:26:09;14.1;74.9
78455;SHT31;67751;51.986;5.696;2023-11-19T11:28:48;14.1;76.2
78455;SHT31;67751;51.986;5.696;2023-11-19T11:31:34;14.1;75.2
78455;SHT31;67751;51.986;5.696;2023-11-19T11:35:01;14.1;76.0
78455;SHT31;67751;51.986;5.696;2023-11-19T11:37:42;14.1;76.1
78455;SHT31;67751;51.986;5.696;2023-11-19T11:40:16;14.1;75.7
78455;SHT31;67751;51.986;5.696;2023-11-19T11:42:46;14.1;76.1
78455;SHT31;67751;51.986;5.696;2023-11-19T11:45:16;14.1;75.2
78455;SHT31;67751;51.986;5.696;2023-11-19T11:48:12;14.1;75.3
78455;SHT31;67751;51.986;5.696;2023-11-19T11:50:51;14.1;75.4
78455;SHT31;67751;51.986;5.696;2023-11-19T11:53:22;14.1;75.5
78455;SHT31;67751;51.986;5.696;2023-11-19T11:55:59;14.1;75.8
78455;SHT31;67751;51.986;5.696;2023-11-19T11:58:36;14.1;75.3
78455;SHT31;67751;51.986;5.696;2023-11-19T12:01:07;14.2;75.0
78455;SHT31;67751;51.986;5.696;2023-11-19T12:03:37;14.2;76.0
78455;SHT31;67751;51.986;5.696;2023-11-19T12:06:09;14.2;74.9
78455;SHT31;67751;51.986;5.696;2023-11-19T12:08:41;14.2;73.7
78455;SHT31;67751;51.986;5.696;2023-11-19T12:11:10;14.2;73.4
78455;SHT31;67751;51.986;5.696;2023-11-19T12:13:53;14.3;73.4
78455;SHT31;67751;51.986;5.696;2023-11-19T12:16:26;14.3;73.6
78455;SHT31;67751;51.986;5.696;2023-11-19T12:19:02;14.3;74.4
78455;SHT31;67751;51.986;5.696;2023-11-19T12:21:34;14.3;73.1
78455;SHT31;67751;51.986;5.696;2023-11-19T12:24:06;14.3;73.9
78455;SHT31;67751;51.986;5.696;2023-11-19T12:26:38;14.3;73.4
78455;SHT31;67751;51.986;5.696;2023-11-19T12:29:08;14.3;72.7
78455;SHT31;67751;51.986;5.696;2023-11-19T12:31:37;14.3;74.3
78455;SHT31;67751;51.986;5.696;2023-11-19T12:34:12;14.3;74.3
78455;SHT31;67751;51.986;5.696;2023-11-19T12:36:42;14.3;74.2
78455;SHT31;67751;51.986;5.696;2023-11-19T12:39:12;14.3;72.8
78455;SHT31;67751;51.986;5.696;2023-11-19T12:41:52;14.3;73.3
78455;SHT31;67751;51.986;5.696;2023-11-19T12:44:22;14.3;74.8
78455;SHT31;67751;51.986;5.696;2023-11-19T12:47:02;14.3;74.6
78455;SHT31;67751;51.986;5.696;2023-11-19T12:49:33;14.4;74.2
78455;SHT31;67751;51.986;5.696;2023-11-19T12:52:15;14.4;71.9
78455;SHT31;67751;51.986;5.696;2023-11-19T12:54:45;14.4;73.0
78455;SHT31;67751;51.986;5.696;2023-11-19T12:57:14;14.4;73.3
78455;SHT31;67751;51.986;5.696;2023-11-19T12:59:56;14.4;73.9
78455;SHT31;67751;51.986;5.696;2023-11-19T13:02:48;14.4;73.8
78455;SHT31;67751;51.986;5.696;2023-11-19T13:05:29;14.4;73.1
78455;SHT31;67751;51.986;5.696;2023-11-19T13:08:00;14.4;73.3
78455;SHT31;67751;51.986;5.696;2023-11-19T13:10:31;14.4;73.5
78455;SHT31;67751;51.986;5.696;2023-11-19T13:13:02;14.4;73.7
78455;SHT31;67751;51.986;5.696;2023-11-19T13:15:31;14.4;73.8
78455;SHT31;67751;51.986;5.696;2023-11-19T13:18:02;14.4;72.3
78455;SHT31;67751;51.986;5.696;2023-11-19T13:20:34;14.4;73.3
78455;SHT31;67751;51.986;5.696;2023-11-19T13:23:05;14.4;73.4
78455;SHT31;67751;51.986;5.696;2023-11-19T13:25:35;14.5;73.8
78455;SHT31;67751;51.986;5.696;2023-11-19T13:28:05;14.5;73.0
78455;SHT31;67751;51.986;5.696;2023-11-19T13:30:34;14.5;73.6
78455;SHT31;67751;51.986;5.696;2023-11-19T13:33:03;14.5;74.2
78455;SHT31;67751;51.986;5.696;2023-11-19T13:35:35;14.5;73.6
78455;SHT31;67751;51.986;5.696;2023-11-19T13:38:06;14.5;72.8
78455;SHT31;67751;51.986;5.696;2023-11-19T13:40:36;14.5;73.3
78455;SHT31;67751;51.986;5.696;2023-11-19T13:43:06;14.5;73.8
78455;SHT31;67751;51.986;5.696;2023-11-19T13:45:36;14.4;73.3
78455;SHT31;67751;51.986;5.696;2023-11-19T13:48:07;14.4;73.0
78455;SHT31;67751;51.986;5.696;2023-11-19T13:50:37;14.4;72.3
78455;SHT31;67751;51.986;5.696;2023-11-19T13:53:06;14.4;72.6
78455;SHT31;67751;51.986;5.696;2023-11-19T13:55:36;14.4;72.7
78455;SHT31;67751;51.986;5.696;2023-11-19T13:58:07;14.4;73.1
78455;SHT31;67751;51.986;5.696;2023-11-19T14:00:37;14.4;72.9
78455;SHT31;67751;51.986;5.696;2023-11-19T14:03:10;14.4;73.2
78455;SHT31;67751;51.986;5.696;2023-11-19T14:05:40;14.4;74.4
78455;SHT31;67751;51.986;5.696;2023-11-19T14:08:10;14.4;74.7
78455;SHT31;67751;51.986;5.696;2023-11-19T14:10:41;14.4;74.1
78455;SHT31;67751;51.986;5.696;2023-11-19T14:13:10;14.4;73.8
78455;SHT31;67751;51.986;5.696;2023-11-19T14:15:43;14.3;73.7
78455;SHT31;67751;51.986;5.696;2023-11-19T14:18:12;14.3;73.9
78455;SHT31;67751;51.986;5.696;2023-11-19T14:20:42;14.3;74.0
78455;SHT31;67751;51.986;5.696;2023-11-19T14:23:13;14.3;73.7
78455;SHT31;67751;51.986;5.696;2023-11-19T14:25:43;14.3;73.0
78455;SHT31;67751;51.986;5.696;2023-11-19T14:28:12;14.3;73.0
78455;SHT31;67751;51.986;5.696;2023-11-19T14:30:42;14.3;73.6
78455;SHT31;67751;51.986;5.696;2023-11-19T14:33:13;14.3;73.1
78455;SHT31;67751;51.986;5.696;2023-11-19T14:35:42;14.3;73.8
78455;SHT31;67751;51.986;5.696;2023-11-19T14:38:12;14.3;74.1
78455;SHT31;67751;51.986;5.696;2023-11-19T14:40:41;14.3;73.4
78455;SHT31;67751;51.986;5.696;2023-11-19T14:43:12;14.3;72.9
78455;SHT31;67751;51.986;5.696;2023-11-19T14:45:44;14.3;73.3
78455;SHT31;67751;51.986;5.696;2023-11-19T14:48:13;14.3;72.7
78455;SHT31;67751;51.986;5.696;2023-11-19T14:50:43;14.3;72.5
78455;SHT31;67751;51.986;5.696;2023-11-19T14:53:12;14.3;73.7
78455;SHT31;67751;51.986;5.696;2023-11-19T14:55:43;14.3;73.3
78455;SHT31;67751;51.986;5.696;2023-11-19T14:58:12;14.3;73.7
78455;SHT31;67751;51.986;5.696;2023-11-19T15:00:42;14.3;73.8
78455;SHT31;67751;51.986;5.696;2023-11-19T15:03:12;14.3;72.7
78455;SHT31;67751;51.986;5.696;2023-11-19T15:05:44;14.3;73.5
78455;SHT31;67751;51.986;5.696;2023-11-19T15:08:14;14.3;72.2
78455;SHT31;67751;51.986;5.696;2023-11-19T15:10:44;14.2;72.8
78455;SHT31;67751;51.986;5.696;2023-11-19T15:13:14;14.2;73.1
78455;SHT31;67751;51.986;5.696;2023-11-19T15:15:43;14.2;73.3
78455;SHT31;67751;51.986;5.696;2023-11-19T15:18:13;14.2;74.1
78455;SHT31;67751;51.986;5.696;2023-11-19T15:20:45;14.2;73.2
78455;SHT31;67751;51.986;5.696;2023-11-19T15:23:15;14.2;73.9
78455;SHT31;67751;51.986;5.696;2023-11-19T15:25:47;14.2;74.4
78455;SHT31;67751;51.986;5.696;2023-11-19T15:28:16;14.2;73.6
78455;SHT31;67751;51.986;5.696;2023-11-19T15:30:46;14.2;73.3
78455;SHT31;67751;51.986;5.696;2023-11-19T15:33:16;14.2;73.8
78455;SHT31;67751;51.986;5.696;2023-11-19T15:35:45;14.2;73.0
78455;SHT31;67751;51.986;5.696;2023-11-19T15:38:15;14.2;73.0
78455;SHT31;67751;51.986;5.696;2023-11-19T15:40:44;14.2;73.5
78455;SHT31;67751;51.986;5.696;2023-11-19T15:43:14;14.2;73.7
78455;SHT31;67751;51.986;5.696;2023-11-19T15:45:43;14.2;74.1
78455;SHT31;67751;51.986;5.696;2023-11-19T15:48:13;14.2;73.7
78455;SHT31;67751;51.986;5.696;2023-11-19T15:50:43;14.2;73.5
78455;SHT31;67751;51.986;5.696;2023-11-19T15:53:14;14.2;73.7
78455;SHT31;67751;51.986;5.696;2023-11-19T15:55:44;14.2;73.2
78455;SHT31;67751;51.986;5.696;2023-11-19T15:58:14;14.2;73.0
78455;SHT31;67751;51.986;5.696;2023-11-19T16:00:45;14.2;72.5
78455;SHT31;67751;51.986;5.696;2023-11-19T16:03:15;14.2;73.4
78455;SHT31;67751;51.986;5.696;2023-11-19T16:05:45;14.2;73.4
78455;SHT31;67751;51.986;5.696;2023-11-19T16:08:15;14.2;73.7
78455;SHT31;67751;51.986;5.696;2023-11-19T16:10:45;14.2;73.3
78455;SHT31;67751;51.986;5.696;2023-11-19T16:13:16;14.2;73.5
78455;SHT31;67751;51.986;5.696;2023-11-19T16:15:46;14.2;73.6
78455;SHT31;67751;51.986;5.696;2023-11-19T16:18:16;14.2;73.5
78455;SHT31;67751;51.986;5.696;2023-11-19T16:20:45;14.2;73.4
78455;SHT31;67751;51.986;5.696;2023-11-19T16:23:15;14.2;73.6
78455;SHT31;67751;51.986;5.696;2023-11-19T16:25:47;14.1;73.0
78455;SHT31;67751;51.986;5.696;2023-11-19T16:28:17;14.1;73.0